Time;durP1;ratioP1;P1;durP2;ratioP2;P2;SDS_P1;SDS_P2;PMS_P1;PMS_P2;Temp;Humidity;BMP_temperature;BMP_pressure;BME280_temperature;BME280_humidity;BME280_pressure;Samples;Min_cycle;Max_cycle;Signal;HPM_P1;HPM_P2
2022/01/13 00:01:44;;;;;;;32.00;19.90;;;4.60;1.00;;;;;;5019420;28;20806;-82
2022/01/13 00:04:12;;;;;;;39.15;20.58;;;4.60;1.00;;;;;;5022940;28;20383;-79
2022/01/13 00:06:44;;;;;;;32.25;20.55;;;4.60;1.00;;;;;;5023408;28;20222;-81
2022/01/13 00:09:11;;;;;;;37.22;19.38;;;4.60;1.00;;;;;;5025951;28;20708;-81
2022/01/13 00:11:39;;;;;;;30.60;17.55;;;4.60;1.00;;;;;;5032192;28;20226;-81
2022/01/13 00:19:57;;;;;;;32.28;21.25;;;4.60;1.00;;;;;;5004562;28;20820;-80
2022/01/13 00:22:42;;;;;;;35.25;20.08;;;4.60;1.00;;;;;;5037075;28;20281;-78
2022/01/13 00:25:12;;;;;;;33.20;20.05;;;4.70;1.00;;;;;;5028157;28;20257;-79
2022/01/13 00:27:47;;;;;;;38.58;21.20;;;4.70;1.00;;;;;;5036646;28;20269;-81
2022/01/13 00:30:17;;;;;;;31.70;19.67;;;4.70;1.00;;;;;;5035243;28;20285;-80
2022/01/13 00:32:44;;;;;;;35.88;21.30;;;4.70;1.00;;;;;;5037918;28;20534;-80
2022/01/13 00:35:11;;;;;;;30.30;18.48;;;4.70;1.00;;;;;;5035201;28;20228;-81
2022/01/13 00:37:40;;;;;;;38.15;21.38;;;4.70;1.00;;;;;;5032842;28;20226;-81
2022/01/13 00:40:08;;;;;;;29.15;20.20;;;4.70;1.00;;;;;;5033568;28;20222;-81
2022/01/13 00:42:38;;;;;;;34.63;22.15;;;4.60;1.00;;;;;;5034522;28;20234;-79
2022/01/13 00:45:07;;;;;;;35.15;20.25;;;4.70;1.00;;;;;;5041122;28;20244;-78
2022/01/13 00:47:36;;;;;;;29.15;18.77;;;4.60;1.00;;;;;;5046198;28;20230;-79
2022/01/13 00:50:03;;;;;;;34.03;21.33;;;4.70;1.00;;;;;;5043780;28;20225;-84
2022/01/13 00:52:30;;;;;;;33.05;20.90;;;4.70;1.00;;;;;;5050187;28;20302;-86
2022/01/13 00:55:03;;;;;;;37.63;21.73;;;4.70;1.00;;;;;;5045704;28;20218;-88
2022/01/13 00:57:31;;;;;;;40.47;22.48;;;4.70;1.00;;;;;;5042341;28;20222;-84
2022/01/13 00:59:58;;;;;;;31.88;21.90;;;4.60;1.00;;;;;;5045352;28;20234;-86
2022/01/13 01:02:25;;;;;;;34.05;20.35;;;4.70;1.00;;;;;;5046430;28;20222;-87
2022/01/13 01:04:52;;;;;;;32.60;20.92;;;4.70;1.00;;;;;;5039326;28;20238;-79
2022/01/13 01:07:19;;;;;;;36.47;22.25;;;4.70;1.00;;;;;;5047041;28;20222;-80
2022/01/13 01:09:49;;;;;;;39.50;23.45;;;4.70;1.00;;;;;;5031357;28;20238;-78
2022/01/13 01:12:19;;;;;;;40.58;23.48;;;4.70;1.00;;;;;;5038079;28;20245;-79
2022/01/13 01:14:49;;;;;;;36.15;22.48;;;4.70;1.00;;;;;;5036715;28;20231;-81
2022/01/13 01:17:17;;;;;;;33.05;22.10;;;4.80;1.00;;;;;;5038860;28;20222;-79
2022/01/13 01:19:47;;;;;;;39.72;22.50;;;4.80;1.00;;;;;;5033564;28;20249;-81
2022/01/13 01:22:35;;;;;;;39.45;23.30;;;4.80;1.00;;;;;;5036402;28;20223;-81
2022/01/13 01:25:32;;;;;;;37.00;22.80;;;4.80;1.00;;;;;;5044469;28;20325;-81
2022/01/13 01:28:01;;;;;;;33.63;20.92;;;4.80;1.00;;;;;;5038386;28;20229;-84
2022/01/13 01:30:34;;;;;;;39.08;22.58;;;4.90;1.00;;;;;;5036845;28;20245;-85
2022/01/13 01:33:02;;;;;;;35.35;22.17;;;4.80;1.00;;;;;;5030196;28;20230;-85
2022/01/13 01:35:29;;;;;;;41.35;23.65;;;4.90;1.00;;;;;;5034567;28;20219;-83
2022/01/13 01:37:56;;;;;;;36.88;23.33;;;4.90;1.00;;;;;;5034274;28;20230;-83
2022/01/13 01:40:24;;;;;;;32.03;21.63;;;4.90;1.00;;;;;;5030501;28;20241;-82
2022/01/13 01:42:52;;;;;;;33.67;21.90;;;4.90;1.00;;;;;;5031996;28;20273;-86
2022/01/13 01:45:21;;;;;;;35.72;23.42;;;4.90;1.00;;;;;;5030453;28;20329;-84
2022/01/13 01:47:51;;;;;;;33.88;22.20;;;4.90;1.00;;;;;;5033075;28;20256;-86
2022/01/13 01:50:21;;;;;;;38.95;24.27;;;4.80;1.00;;;;;;5031768;28;20238;-84
2022/01/13 01:52:53;;;;;;;36.70;24.10;;;4.80;1.00;;;;;;5030059;28;20223;-84
2022/01/13 01:55:23;;;;;;;39.65;22.63;;;4.70;1.00;;;;;;5030203;28;21520;-86
2022/01/13 01:57:51;;;;;;;34.63;22.98;;;4.70;1.00;;;;;;5029535;28;20226;-84
2022/01/13 02:00:24;;;;;;;46.13;24.42;;;4.80;1.00;;;;;;5030924;28;20800;-85
2022/01/13 02:02:51;;;;;;;34.95;22.65;;;4.80;1.00;;;;;;5031402;28;20478;-84
2022/01/13 02:05:18;;;;;;;39.83;22.05;;;4.80;1.00;;;;;;5034125;28;20278;-84
2022/01/13 02:07:45;;;;;;;34.35;22.52;;;4.80;1.00;;;;;;5045349;28;20218;-85
2022/01/13 02:10:14;;;;;;;42.42;23.27;;;4.80;1.00;;;;;;5045143;28;20241;-85
2022/01/13 02:12:46;;;;;;;36.78;23.75;;;4.80;1.00;;;;;;5045102;28;20219;-85
2022/01/13 02:15:34;;;;;;;33.17;23.00;;;4.80;1.00;;;;;;5039512;28;20252;-84
2022/01/13 02:18:07;;;;;;;38.53;23.48;;;4.80;1.00;;;;;;5039101;28;20215;-87
2022/01/13 02:20:44;;;;;;;42.33;24.27;;;4.80;1.00;;;;;;5032134;28;20250;-85
2022/01/13 02:23:11;;;;;;;40.00;22.65;;;4.80;1.00;;;;;;5032494;28;21621;-84
2022/01/13 02:25:38;;;;;;;38.03;22.92;;;4.80;1.00;;;;;;5029738;28;20282;-83
2022/01/13 02:28:05;;;;;;;37.80;22.92;;;4.80;1.00;;;;;;5029795;28;20309;-79
2022/01/13 02:30:32;;;;;;;39.15;22.83;;;4.80;1.00;;;;;;5026150;28;20247;-79
2022/01/13 02:33:00;;;;;;;46.08;24.50;;;4.80;1.00;;;;;;5028889;28;20226;-79
2022/01/13 02:35:35;;;;;;;42.20;23.98;;;4.80;1.00;;;;;;5029321;28;20312;-79
2022/01/13 02:38:10;;;;;;;38.10;22.08;;;4.80;1.00;;;;;;5029712;28;20222;-81
2022/01/13 02:40:37;;;;;;;34.60;25.48;;;4.80;1.00;;;;;;5026549;28;20234;-80
2022/01/13 02:43:04;;;;;;;42.03;23.50;;;4.80;1.00;;;;;;5041325;28;20710;-81
2022/01/13 02:45:34;;;;;;;43.00;24.35;;;4.80;1.00;;;;;;5030022;28;20707;-79
2022/01/13 02:48:26;;;;;;;41.97;23.55;;;4.80;1.00;;;;;;5030625;28;20231;-78
2022/01/13 02:50:54;;;;;;;37.47;24.55;;;4.70;1.00;;;;;;5023566;28;20658;-79
2022/01/13 02:53:22;;;;;;;39.72;25.17;;;4.70;1.00;;;;;;5028512;28;20226;-78
2022/01/13 02:55:50;;;;;;;39.47;23.50;;;4.70;1.00;;;;;;5022871;28;20223;-79
2022/01/13 02:58:17;;;;;;;39.10;23.90;;;4.70;1.00;;;;;;5023978;28;21542;-78
2022/01/13 03:00:45;;;;;;;40.28;25.38;;;4.60;1.00;;;;;;5026353;28;20214;-79
2022/01/13 03:03:13;;;;;;;41.40;24.60;;;4.60;1.00;;;;;;5024987;28;20219;-80
2022/01/13 03:05:40;;;;;;;37.67;23.25;;;4.60;1.00;;;;;;5027549;28;20214;-79
2022/01/13 03:08:09;;;;;;;45.33;25.20;;;4.60;1.00;;;;;;5026518;28;20218;-78
2022/01/13 03:10:38;;;;;;;46.95;27.38;;;4.60;1.00;;;;;;5032267;28;20394;-77
2022/01/13 03:13:06;;;;;;;41.83;24.88;;;4.70;1.00;;;;;;5035894;28;20230;-79
2022/01/13 03:15:33;;;;;;;40.55;23.10;;;4.70;1.00;;;;;;5029656;28;20248;-80
2022/01/13 03:18:00;;;;;;;38.67;22.88;;;4.60;1.00;;;;;;5030270;28;21058;-78
2022/01/13 03:20:26;;;;;;;43.30;24.40;;;4.60;1.00;;;;;;5024111;28;20230;-78
2022/01/13 03:22:53;;;;;;;39.70;24.15;;;4.70;1.00;;;;;;5020248;28;20288;-80
2022/01/13 03:25:23;;;;;;;41.00;25.70;;;4.60;1.00;;;;;;5015576;28;20229;-79
2022/01/13 03:28:03;;;;;;;47.75;25.55;;;4.60;1.00;;;;;;5013761;28;20222;-80
2022/01/13 03:30:30;;;;;;;41.33;24.65;;;4.60;1.00;;;;;;5014459;28;20240;-80
2022/01/13 03:32:57;;;;;;;41.13;27.25;;;4.60;1.00;;;;;;5020077;28;21116;-81
2022/01/13 03:35:24;;;;;;;48.28;23.70;;;4.70;1.00;;;;;;5021582;28;20265;-80
2022/01/13 03:37:52;;;;;;;42.72;26.17;;;4.60;1.00;;;;;;5020706;28;20214;-79
2022/01/13 03:40:18;;;;;;;41.60;24.30;;;4.60;1.00;;;;;;5019216;28;20242;-79
2022/01/13 03:42:47;;;;;;;44.45;26.10;;;4.70;1.00;;;;;;5018029;28;20214;-80
2022/01/13 03:45:15;;;;;;;40.42;23.77;;;4.60;1.00;;;;;;5019006;28;20222;-79
2022/01/13 03:47:42;;;;;;;35.38;24.08;;;4.60;1.00;;;;;;5014590;28;20237;-78
2022/01/13 03:50:10;;;;;;;39.75;26.55;;;4.60;1.00;;;;;;5015916;28;20258;-80
2022/01/13 03:53:12;;;;;;;40.65;22.63;;;4.60;1.00;;;;;;5014394;28;20353;-80
2022/01/13 03:56:34;;;;;;;40.42;22.92;;;4.60;1.00;;;;;;4979445;28;21465;-78
2022/01/13 03:59:36;;;;;;;39.67;25.13;;;4.60;1.00;;;;;;5020516;28;20302;-80
2022/01/13 04:02:09;;;;;;;46.17;25.13;;;4.60;1.00;;;;;;5015275;28;20245;-79
2022/01/13 04:04:39;;;;;;;45.40;25.60;;;4.60;1.00;;;;;;5016822;28;20231;-84
2022/01/13 04:07:16;;;;;;;44.58;27.33;;;4.60;1.00;;;;;;5015605;28;20219;-83
2022/01/13 04:10:19;;;;;;;40.88;24.10;;;4.60;1.00;;;;;;5019653;28;20257;-83
2022/01/13 04:12:46;;;;;;;39.33;25.70;;;4.60;1.00;;;;;;5019900;28;20238;-84
2022/01/13 04:15:15;;;;;;;42.55;26.98;;;4.60;1.00;;;;;;5022078;28;20218;-84
2022/01/13 04:17:43;;;;;;;41.67;25.27;;;4.60;1.00;;;;;;5026487;28;20223;-87
2022/01/13 04:20:11;;;;;;;44.90;25.85;;;4.60;1.00;;;;;;5043154;28;20238;-86
2022/01/13 04:22:39;;;;;;;47.45;26.83;;;4.60;1.00;;;;;;5046528;28;20217;-86
2022/01/13 04:25:07;;;;;;;44.72;26.02;;;4.50;1.00;;;;;;5040918;28;20219;-86
2022/01/13 04:27:37;;;;;;;41.78;27.05;;;4.50;1.00;;;;;;5030397;28;23003;-85
2022/01/13 04:30:33;;;;;;;45.45;26.92;;;4.50;1.00;;;;;;5026424;28;20222;-87
2022/01/13 04:33:02;;;;;;;45.10;27.45;;;4.50;1.00;;;;;;5026628;28;20227;-86
2022/01/13 04:35:29;;;;;;;40.35;26.60;;;4.50;1.00;;;;;;5033870;28;20354;-86
2022/01/13 04:37:55;;;;;;;45.88;28.42;;;4.50;1.00;;;;;;5034904;28;20307;-84
2022/01/13 04:40:22;;;;;;;48.10;27.30;;;4.50;1.00;;;;;;5030346;28;20222;-84
2022/01/13 04:42:54;;;;;;;45.75;28.65;;;4.50;1.00;;;;;;5026338;28;20214;-85
2022/01/13 04:45:21;;;;;;;50.85;27.70;;;4.50;1.00;;;;;;5032618;28;20211;-83
2022/01/13 04:47:49;;;;;;;44.08;27.33;;;4.50;1.00;;;;;;5039438;28;20211;-89
2022/01/13 04:50:17;;;;;;;49.95;27.92;;;4.50;1.00;;;;;;5028881;28;20246;-86
2022/01/13 04:52:44;;;;;;;46.72;30.20;;;4.50;1.00;;;;;;5014785;28;20973;-81
2022/01/13 04:55:13;;;;;;;43.97;27.00;;;4.50;1.00;;;;;;5017978;28;21377;-85
2022/01/13 04:57:40;;;;;;;46.05;27.42;;;4.50;1.00;;;;;;5018236;28;20292;-78
2022/01/13 05:00:10;;;;;;;49.05;29.02;;;4.50;1.00;;;;;;5015961;28;20327;-78
2022/01/13 05:02:36;;;;;;;40.80;26.38;;;4.50;1.00;;;;;;5020297;28;21134;-79
2022/01/13 05:05:04;;;;;;;49.92;29.58;;;4.50;1.00;;;;;;5020432;28;20227;-79
2022/01/13 05:07:33;;;;;;;46.67;29.13;;;4.50;1.00;;;;;;5020257;28;20214;-81
2022/01/13 05:09:59;;;;;;;56.63;28.98;;;4.50;1.00;;;;;;5014022;28;20235;-80
2022/01/13 05:12:31;;;;;;;51.15;28.73;;;4.50;1.00;;;;;;5015404;28;20310;-78
2022/01/13 05:15:02;;;;;;;48.83;29.45;;;4.60;1.00;;;;;;5015086;28;20228;-79
2022/01/13 05:18:05;;;;;;;47.88;27.40;;;4.60;1.00;;;;;;5014815;28;20241;-80
2022/01/13 05:20:39;;;;;;;55.42;28.60;;;4.50;1.00;;;;;;5020486;28;20661;-78
2022/01/13 05:23:10;;;;;;;46.13;27.80;;;4.40;1.00;;;;;;5015911;28;20214;-78
2022/01/13 05:25:38;;;;;;;46.95;27.42;;;4.40;1.00;;;;;;5014794;28;20246;-80
2022/01/13 05:28:06;;;;;;;46.67;28.98;;;4.40;1.00;;;;;;5037015;28;20226;-78
2022/01/13 05:30:33;;;;;;;52.53;28.40;;;4.40;1.00;;;;;;5030816;28;20234;-81
2022/01/13 05:33:00;;;;;;;48.35;29.65;;;4.40;1.00;;;;;;5029772;28;20218;-78
2022/01/13 05:35:27;;;;;;;46.05;29.05;;;4.40;1.00;;;;;;5033417;28;20298;-81
2022/01/13 05:37:55;;;;;;;49.10;27.70;;;4.40;1.00;;;;;;5025863;28;20269;-79
2022/01/13 05:40:23;;;;;;;50.33;28.85;;;4.40;1.00;;;;;;5022024;28;21327;-78
2022/01/13 05:42:51;;;;;;;52.55;30.08;;;4.40;1.00;;;;;;5023451;28;20286;-82
2022/01/13 05:45:20;;;;;;;51.33;28.15;;;4.40;1.00;;;;;;5017719;28;20210;-80
2022/01/13 05:47:50;;;;;;;56.97;29.08;;;4.40;1.00;;;;;;5025759;28;20231;-80
2022/01/13 05:50:19;;;;;;;40.88;25.80;;;4.50;1.00;;;;;;5022698;28;20379;-84
2022/01/13 05:52:47;;;;;;;53.20;28.02;;;4.40;1.00;;;;;;5031571;28;20230;-81
2022/01/13 05:55:15;;;;;;;44.38;25.75;;;4.40;1.00;;;;;;5034487;28;20321;-78
2022/01/13 05:57:45;;;;;;;43.85;26.70;;;4.40;1.00;;;;;;5026313;28;20349;-81
2022/01/13 06:00:14;;;;;;;44.22;27.83;;;4.40;1.00;;;;;;5028064;28;20237;-79
2022/01/13 06:02:42;;;;;;;45.97;28.30;;;4.40;1.00;;;;;;5027333;28;20218;-81
2022/01/13 06:05:10;;;;;;;45.63;28.15;;;4.40;1.00;;;;;;5024718;28;20226;-80
2022/01/13 06:07:37;;;;;;;52.80;27.30;;;4.40;1.00;;;;;;5029905;28;20265;-78
2022/01/13 06:10:09;;;;;;;50.22;27.35;;;4.40;1.00;;;;;;5035337;28;20254;-80
2022/01/13 06:12:37;;;;;;;48.47;26.95;;;4.40;1.00;;;;;;5030019;28;20254;-82
2022/01/13 06:15:09;;;;;;;52.88;30.50;;;4.40;1.00;;;;;;5015725;28;20226;-81
2022/01/13 06:17:36;;;;;;;44.15;27.20;;;4.40;1.00;;;;;;5018398;28;20579;-80
2022/01/13 06:20:05;;;;;;;41.97;25.75;;;4.40;1.00;;;;;;5017425;28;20352;-80
2022/01/13 06:22:32;;;;;;;43.70;25.85;;;4.40;1.00;;;;;;5021552;28;20218;-80
2022/01/13 06:24:59;;;;;;;51.72;26.90;;;4.40;1.00;;;;;;5016152;28;20222;-78
2022/01/13 06:27:27;;;;;;;50.50;27.63;;;4.40;1.00;;;;;;5021573;28;21145;-79
2022/01/13 06:29:54;;;;;;;35.83;22.05;;;4.40;1.00;;;;;;5011670;28;20249;-73
2022/01/13 06:32:22;;;;;;;39.67;22.45;;;5.00;1.00;;;;;;5014103;28;20219;-75
2022/01/13 06:34:49;;;;;;;39.13;21.23;;;6.20;1.00;;;;;;5014746;28;20231;-76
2022/01/13 06:37:17;;;;;;;37.67;23.50;;;7.20;1.00;;;;;;5020127;28;20226;-82
2022/01/13 06:39:44;;;;;;;35.95;21.10;;;7.50;1.00;;;;;;5020198;28;20643;-81
2022/01/13 06:42:11;;;;;;;30.83;19.05;;;7.10;1.00;;;;;;5022411;28;20864;-82
2022/01/13 06:44:39;;;;;;;30.20;21.25;;;6.60;1.00;;;;;;5018950;28;20218;-82
2022/01/13 06:47:07;;;;;;;36.88;21.45;;;6.00;1.00;;;;;;5022173;28;20222;-82
2022/01/13 06:49:38;;;;;;;38.60;22.38;;;5.70;1.00;;;;;;5024860;28;20245;-83
2022/01/13 06:52:16;;;;;;;38.42;22.05;;;5.40;1.00;;;;;;5024022;28;20248;-82
2022/01/13 06:54:47;;;;;;;38.83;21.50;;;5.30;1.00;;;;;;5013706;28;20318;-80
2022/01/13 06:57:13;;;;;;;34.47;23.00;;;5.10;1.00;;;;;;5012760;28;20211;-82
2022/01/13 06:59:42;;;;;;;36.97;23.67;;;5.00;1.00;;;;;;5018799;28;20229;-80
2022/01/13 07:02:09;;;;;;;38.72;22.80;;;4.90;1.00;;;;;;5016166;28;21067;-81
2022/01/13 07:04:37;;;;;;;38.72;22.95;;;4.90;1.00;;;;;;5014996;28;20333;-81
2022/01/13 07:07:04;;;;;;;42.75;23.52;;;4.90;1.00;;;;;;5016142;28;20579;-80
2022/01/13 07:09:31;;;;;;;40.40;24.98;;;4.80;1.00;;;;;;5016766;28;20274;-80
2022/01/13 07:11:58;;;;;;;42.25;23.60;;;4.70;1.00;;;;;;5022165;28;21338;-83
2022/01/13 07:14:25;;;;;;;39.67;23.45;;;4.70;1.00;;;;;;5018504;28;20225;-82
2022/01/13 07:16:52;;;;;;;42.33;23.48;;;4.70;1.00;;;;;;5034443;28;20313;-82
2022/01/13 07:19:19;;;;;;;43.97;26.70;;;4.60;1.00;;;;;;5021949;28;20232;-82
2022/01/13 07:21:50;;;;;;;44.17;25.92;;;4.60;1.00;;;;;;5032891;28;20218;-81
2022/01/13 07:24:17;;;;;;;45.55;26.25;;;4.60;1.00;;;;;;5041087;28;20876;-82
2022/01/13 07:26:44;;;;;;;41.20;26.83;;;4.60;1.00;;;;;;5016186;28;21280;-81
2022/01/13 07:29:14;;;;;;;43.92;25.98;;;4.60;1.00;;;;;;5012674;28;20234;-82
2022/01/13 07:31:41;;;;;;;44.08;27.33;;;4.50;1.00;;;;;;5013033;28;20245;-82
2022/01/13 07:34:08;;;;;;;49.33;24.42;;;4.50;1.00;;;;;;5021488;28;20250;-82
2022/01/13 07:36:36;;;;;;;47.33;27.38;;;4.50;1.00;;;;;;5020132;28;20716;-82
2022/01/13 07:39:07;;;;;;;46.17;25.33;;;4.50;1.00;;;;;;5014181;28;20790;-83
2022/01/13 07:41:36;;;;;;;47.10;28.70;;;4.50;1.00;;;;;;4998574;28;20736;-83
2022/01/13 07:44:03;;;;;;;46.97;27.23;;;4.50;1.00;;;;;;5015515;28;20229;-82
2022/01/13 07:46:30;;;;;;;42.05;26.65;;;4.50;1.00;;;;;;5017674;28;20446;-83
2022/01/13 07:48:57;;;;;;;53.28;30.67;;;4.50;1.00;;;;;;5027808;28;20257;-83
2022/01/13 07:51:24;;;;;;;53.63;32.42;;;4.50;1.00;;;;;;5021187;28;20626;-83
2022/01/13 07:53:51;;;;;;;48.28;29.65;;;4.50;1.00;;;;;;5024165;28;20287;-84
2022/01/13 07:56:20;;;;;;;48.15;27.23;;;4.50;1.00;;;;;;5017172;28;20229;-83
2022/01/13 07:58:47;;;;;;;48.78;27.63;;;4.50;1.00;;;;;;5026122;28;20226;-84
2022/01/13 08:01:14;;;;;;;45.00;26.13;;;4.50;1.00;;;;;;5037016;28;20930;-84
2022/01/13 08:03:41;;;;;;;48.17;27.60;;;4.40;1.00;;;;;;5017691;28;20904;-82
2022/01/13 08:06:08;;;;;;;48.80;28.98;;;4.50;1.00;;;;;;5014997;28;20273;-81
2022/01/13 08:08:38;;;;;;;59.10;30.02;;;4.50;1.00;;;;;;5017828;28;20230;-82
2022/01/13 08:11:07;;;;;;;42.92;27.30;;;4.50;1.00;;;;;;5014178;28;20373;-81
2022/01/13 08:13:37;;;;;;;49.38;29.95;;;4.50;1.00;;;;;;5016512;28;21078;-79
2022/01/13 08:16:08;;;;;;;47.38;28.40;;;4.50;1.00;;;;;;5016211;28;20317;-80
2022/01/13 08:21:20;;;;;;;46.85;27.20;;;4.50;1.00;;;;;;5034729;28;20215;-79
2022/01/13 08:23:47;;;;;;;49.47;26.88;;;4.50;1.00;;;;;;5028030;28;20226;-80
2022/01/13 08:26:14;;;;;;;51.25;28.88;;;4.50;1.00;;;;;;5015832;28;20233;-81
2022/01/13 08:28:43;;;;;;;50.92;28.77;;;4.50;1.00;;;;;;5024329;28;20230;-80
2022/01/13 08:31:10;;;;;;;42.80;27.30;;;4.50;1.00;;;;;;5011564;28;20752;-81
2022/01/13 08:33:39;;;;;;;47.25;27.30;;;4.50;1.00;;;;;;5010684;28;20226;-81
2022/01/13 08:36:07;;;;;;;46.47;26.17;;;4.50;1.00;;;;;;5012684;28;20226;-81
2022/01/13 08:38:34;;;;;;;52.35;27.75;;;4.50;1.00;;;;;;5014362;28;21492;-79
2022/01/13 08:41:01;;;;;;;52.05;27.02;;;4.60;1.00;;;;;;5022626;28;20233;-79
2022/01/13 08:43:29;;;;;;;50.30;27.67;;;4.60;1.00;;;;;;5029717;28;20565;-79
2022/01/13 08:45:57;;;;;;;48.97;28.73;;;4.60;1.00;;;;;;5030931;28;20230;-81
2022/01/13 08:48:24;;;;;;;43.00;25.73;;;4.60;1.00;;;;;;5026465;28;20221;-79
2022/01/13 08:50:52;;;;;;;47.25;27.15;;;4.60;1.00;;;;;;5022819;28;21322;-79
2022/01/13 08:53:19;;;;;;;49.75;26.60;;;4.60;1.00;;;;;;5016281;28;20222;-80
2022/01/13 08:55:47;;;;;;;54.78;27.10;;;4.60;1.00;;;;;;5016092;28;20296;-81
2022/01/13 08:58:14;;;;;;;41.38;26.55;;;4.70;1.00;;;;;;5016511;28;20322;-80
2022/01/13 09:00:42;;;;;;;42.42;25.35;;;4.70;1.00;;;;;;5012714;28;20341;-81
2022/01/13 09:03:11;;;;;;;51.75;26.30;;;4.60;1.00;;;;;;5017227;28;20229;-83
2022/01/13 09:05:41;;;;;;;55.03;27.67;;;4.60;1.00;;;;;;5020693;28;21141;-81
2022/01/13 09:08:10;;;;;;;51.45;26.40;;;4.70;1.00;;;;;;5015913;28;20218;-79
2022/01/13 09:10:38;;;;;;;46.83;26.90;;;4.70;1.00;;;;;;5012032;28;20227;-79
2022/01/13 09:13:05;;;;;;;50.72;27.10;;;4.70;1.00;;;;;;5015217;28;20764;-81
2022/01/13 09:15:35;;;;;;;51.67;25.88;;;4.70;1.00;;;;;;5017500;28;20290;-83
2022/01/13 09:18:09;;;;;;;48.90;24.70;;;4.70;1.00;;;;;;5015167;28;20230;-81
2022/01/13 09:20:38;;;;;;;45.85;27.10;;;4.60;1.00;;;;;;5012090;28;20340;-82
2022/01/13 09:23:06;;;;;;;51.88;26.33;;;4.70;1.00;;;;;;5015389;28;20222;-80
2022/01/13 09:25:34;;;;;;;47.75;27.80;;;4.70;1.00;;;;;;5027662;28;20368;-81
2022/01/13 09:28:03;;;;;;;50.40;26.15;;;4.80;1.00;;;;;;5017730;28;20288;-80
2022/01/13 09:30:30;;;;;;;53.92;27.27;;;4.90;1.00;;;;;;5017594;28;21132;-81
2022/01/13 09:32:57;;;;;;;49.20;27.55;;;4.90;1.00;;;;;;5019071;28;20229;-80
2022/01/13 09:35:24;;;;;;;45.35;24.30;;;4.90;1.00;;;;;;5019781;28;21324;-83
2022/01/13 09:37:54;;;;;;;46.20;23.83;;;5.00;1.00;;;;;;5015987;28;20316;-80
2022/01/13 09:40:21;;;;;;;45.85;25.35;;;4.90;1.00;;;;;;5026080;28;20250;-80
2022/01/13 09:42:49;;;;;;;44.92;24.60;;;4.90;1.00;;;;;;5027773;28;20245;-79
2022/01/13 09:45:17;;;;;;;44.38;23.85;;;4.90;1.00;;;;;;5027161;28;20746;-81
2022/01/13 09:47:45;;;;;;;43.13;25.52;;;4.90;1.00;;;;;;5021505;28;20230;-83
2022/01/13 09:50:16;;;;;;;46.20;25.45;;;5.00;1.00;;;;;;5014618;28;20242;-81
2022/01/13 09:52:43;;;;;;;42.53;22.65;;;5.00;1.00;;;;;;5016727;28;20230;-81
2022/01/13 09:55:14;;;;;;;48.33;27.58;;;4.90;1.00;;;;;;5025334;28;20289;-81
2022/01/13 09:57:43;;;;;;;44.35;25.10;;;4.90;1.00;;;;;;5021454;28;20231;-80
2022/01/13 10:00:11;;;;;;;45.85;25.42;;;4.90;1.00;;;;;;5019576;28;20307;-81
2022/01/13 10:02:38;;;;;;;49.05;26.60;;;4.90;1.00;;;;;;5034992;28;20245;-81
2022/01/13 10:05:06;;;;;;;47.30;24.30;;;4.90;1.00;;;;;;5020577;28;20309;-82
2022/01/13 10:07:36;;;;;;;45.80;24.90;;;4.90;1.00;;;;;;5021692;28;20278;-83
2022/01/13 10:10:05;;;;;;;44.95;25.77;;;4.90;1.00;;;;;;5020666;28;20269;-81
2022/01/13 10:12:37;;;;;;;45.65;24.33;;;4.90;1.00;;;;;;5018619;28;20242;-83
2022/01/13 10:17:53;;;;;;;45.72;26.48;;;4.90;1.00;;;;;;5027463;28;20222;-83
2022/01/13 10:20:23;;;;;;;46.28;25.63;;;4.90;1.00;;;;;;5021047;28;20723;-81
2022/01/13 10:22:50;;;;;;;51.95;25.10;;;4.90;1.00;;;;;;5023587;28;20222;-82
2022/01/13 10:25:32;;;;;;;48.63;25.92;;;4.80;1.00;;;;;;5022406;28;20622;-81
2022/01/13 10:28:15;;;;;;;49.63;25.77;;;4.90;1.00;;;;;;5021554;28;20300;-82
2022/01/13 10:30:44;;;;;;;42.55;24.80;;;4.90;1.00;;;;;;5021481;28;20230;-83
2022/01/13 10:33:16;;;;;;;51.63;24.85;;;4.90;1.00;;;;;;5019082;28;20219;-83
2022/01/13 10:35:43;;;;;;;50.72;25.17;;;5.00;1.00;;;;;;5020683;28;20294;-82
2022/01/13 10:38:13;;;;;;;43.90;23.15;;;4.90;1.00;;;;;;5035255;28;20234;-83
2022/01/13 10:40:42;;;;;;;46.20;26.13;;;4.90;1.00;;;;;;5029418;28;20237;-82
2022/01/13 10:43:12;;;;;;;41.53;23.50;;;4.90;1.00;;;;;;5039482;28;20241;-82
2022/01/13 10:45:49;;;;;;;39.38;22.65;;;4.90;1.00;;;;;;5043069;28;20273;-80
2022/01/13 10:48:19;;;;;;;48.72;27.17;;;4.90;1.00;;;;;;5045087;28;20241;-81
2022/01/13 10:50:49;;;;;;;41.10;24.10;;;4.90;1.00;;;;;;5049598;28;20291;-81
2022/01/13 10:53:19;;;;;;;40.83;22.20;;;4.90;1.00;;;;;;5045356;28;20273;-81
2022/01/13 10:55:49;;;;;;;42.22;21.75;;;4.90;1.00;;;;;;5044250;28;20218;-80
2022/01/13 10:58:18;;;;;;;46.60;23.10;;;4.80;1.00;;;;;;5047137;28;20222;-82
2022/01/13 11:00:47;;;;;;;45.85;24.70;;;4.80;1.00;;;;;;5044293;28;20213;-81
2022/01/13 11:03:17;;;;;;;39.80;21.90;;;4.90;1.00;;;;;;5043060;28;20281;-82
2022/01/13 11:05:48;;;;;;;41.20;22.70;;;4.90;1.00;;;;;;5044728;28;20238;-80
2022/01/13 11:08:24;;;;;;;38.97;20.50;;;5.00;1.00;;;;;;5045583;28;20273;-81
2022/01/13 11:10:52;;;;;;;38.45;21.60;;;5.00;1.00;;;;;;5042709;28;20214;-80
2022/01/13 11:13:21;;;;;;;40.83;22.15;;;5.00;1.00;;;;;;5046430;28;20234;-80
2022/01/13 11:15:53;;;;;;;31.95;19.90;;;5.10;1.00;;;;;;5042965;28;20237;-80
2022/01/13 11:18:21;;;;;;;40.13;19.42;;;5.10;1.00;;;;;;5045199;28;20409;-80
2022/01/13 11:20:48;;;;;;;37.42;20.48;;;5.00;1.00;;;;;;5046658;28;20270;-79
2022/01/13 11:23:17;;;;;;;38.35;21.88;;;5.00;1.00;;;;;;5039607;28;20218;-80
2022/01/13 11:25:45;;;;;;;37.15;20.60;;;5.00;1.00;;;;;;5040730;28;20215;-81
2022/01/13 11:28:13;;;;;;;36.03;19.58;;;5.00;1.00;;;;;;5042973;28;20231;-80
2022/01/13 11:30:40;;;;;;;35.78;20.08;;;5.00;1.00;;;;;;5043925;28;20250;-81
2022/01/13 11:33:09;;;;;;;33.67;20.92;;;4.90;1.00;;;;;;5042381;28;20273;-80
2022/01/13 11:35:39;;;;;;;37.25;20.60;;;5.00;1.00;;;;;;5061359;28;20258;-81
2022/01/13 11:38:08;;;;;;;36.20;21.80;;;4.90;1.00;;;;;;5043296;28;20222;-80
2022/01/13 11:40:45;;;;;;;39.55;20.58;;;4.90;1.00;;;;;;5045582;28;20263;-84
2022/01/13 11:43:28;;;;;;;37.58;21.25;;;4.90;1.00;;;;;;5039461;28;20230;-83
2022/01/13 11:45:56;;;;;;;44.97;21.10;;;5.00;1.00;;;;;;5030710;28;20219;-84
2022/01/13 11:48:26;;;;;;;36.15;20.17;;;4.90;1.00;;;;;;5031652;28;20226;-84
2022/01/13 11:51:14;;;;;;;35.20;18.55;;;4.90;1.00;;;;;;5025677;28;20244;-85
2022/01/13 11:53:57;;;;;;;36.38;19.33;;;5.00;1.00;;;;;;5030720;28;20208;-82
2022/01/13 11:56:25;;;;;;;35.00;18.98;;;5.00;1.00;;;;;;5024813;28;20247;-81
2022/01/13 11:58:54;;;;;;;34.80;20.52;;;5.00;1.00;;;;;;5028532;28;20261;-79
2022/01/13 12:01:23;;;;;;;32.78;19.23;;;5.10;1.00;;;;;;5034518;28;20245;-81
2022/01/13 12:03:53;;;;;;;32.15;18.90;;;5.10;1.00;;;;;;5033327;28;20296;-81
2022/01/13 12:06:49;;;;;;;33.05;18.55;;;5.10;1.00;;;;;;5037950;28;20218;-81
2022/01/13 12:09:40;;;;;;;35.88;19.35;;;5.10;1.00;;;;;;5024125;28;20238;-82
2022/01/13 12:12:28;;;;;;;31.48;18.08;;;5.10;1.00;;;;;;5014947;28;20352;-82
2022/01/13 12:15:16;;;;;;;37.10;19.08;;;5.10;1.00;;;;;;5012349;28;20233;-81
2022/01/13 12:17:49;;;;;;;29.23;16.50;;;5.20;1.00;;;;;;5015554;28;20230;-81
2022/01/13 12:20:30;;;;;;;28.02;17.60;;;5.20;1.00;;;;;;5014722;28;20230;-81
2022/01/13 12:23:04;;;;;;;33.72;17.20;;;5.30;1.00;;;;;;5017545;28;20226;-82
2022/01/13 12:25:33;;;;;;;36.25;17.58;;;5.30;1.00;;;;;;5023053;28;21158;-81
2022/01/13 12:28:11;;;;;;;30.92;18.33;;;5.30;1.00;;;;;;5019407;28;20226;-81
2022/01/13 12:30:39;;;;;;;30.95;17.67;;;5.30;1.00;;;;;;5018519;28;20240;-81
2022/01/13 12:33:09;;;;;;;28.00;16.20;;;5.30;1.00;;;;;;5015725;28;20298;-82
2022/01/13 12:35:45;;;;;;;33.70;17.98;;;5.30;1.00;;;;;;5020782;28;20225;-79
2022/01/13 12:38:14;;;;;;;33.33;17.60;;;5.30;1.00;;;;;;5021802;28;20233;-82
2022/01/13 12:40:50;;;;;;;33.25;18.20;;;5.30;1.00;;;;;;5030998;28;20297;-82
2022/01/13 12:43:50;;;;;;;25.98;17.50;;;5.30;1.00;;;;;;5033508;28;20205;-81
2022/01/13 12:46:19;;;;;;;29.98;17.98;;;5.40;1.00;;;;;;5021528;28;20214;-81
2022/01/13 12:48:49;;;;;;;29.10;16.73;;;5.40;1.00;;;;;;5021144;28;20226;-82
2022/01/13 12:51:20;;;;;;;26.38;16.55;;;5.30;1.00;;;;;;5022296;28;20817;-81
2022/01/13 12:53:48;;;;;;;30.73;16.83;;;5.40;1.00;;;;;;5022290;28;20237;-81
2022/01/13 12:56:17;;;;;;;29.40;17.23;;;5.30;1.00;;;;;;5020340;28;20222;-81
2022/01/13 12:59:11;;;;;;;34.58;18.10;;;5.30;1.00;;;;;;5009463;28;20336;-83
2022/01/13 13:01:44;;;;;;;28.42;16.33;;;5.40;1.00;;;;;;5005193;28;20316;-84
2022/01/13 13:04:23;;;;;;;29.27;17.63;;;5.40;1.00;;;;;;5021062;28;20233;-83
2022/01/13 13:06:59;;;;;;;32.42;17.13;;;5.40;1.00;;;;;;5011046;28;20294;-82
2022/01/13 13:09:57;;;;;;;29.20;15.48;;;5.50;1.00;;;;;;5016085;28;20321;-81
2022/01/13 13:12:27;;;;;;;31.00;17.00;;;5.50;1.00;;;;;;5013248;28;20234;-83
2022/01/13 13:17:51;;;;;;;26.40;17.48;;;5.40;1.00;;;;;;5021248;28;20715;-82
2022/01/13 13:20:25;;;;;;;32.22;17.45;;;5.50;1.00;;;;;;5023449;28;20226;-81